createdAt,value
2019-03-18T00:00:35.226Z,7.40
2019-03-18T00:03:04.282Z,7.40
2019-03-18T00:05:33.064Z,7.40
2019-03-18T00:08:01.909Z,7.40
2019-03-18T00:10:30.701Z,7.40
2019-03-18T00:12:59.496Z,7.30
2019-03-18T00:15:28.344Z,7.30
2019-03-18T00:17:57.102Z,7.30
2019-03-18T00:20:25.952Z,7.30
2019-03-18T00:22:54.787Z,7.30
2019-03-18T00:25:25.207Z,7.30
2019-03-18T00:27:53.980Z,7.30
2019-03-18T00:30:22.828Z,7.20
2019-03-18T00:32:51.701Z,7.10
2019-03-18T00:35:20.498Z,7.10
2019-03-18T00:37:49.306Z,7.00
2019-03-18T00:40:19.293Z,7.00
2019-03-18T00:42:48.144Z,7.00
2019-03-18T00:45:16.951Z,7.00
2019-03-18T00:47:45.730Z,6.90
2019-03-18T00:50:15.683Z,6.90
2019-03-18T00:52:44.746Z,6.90
2019-03-18T00:55:13.509Z,6.90
2019-03-18T00:57:42.543Z,6.80
2019-03-18T01:00:19.027Z,6.80
2019-03-18T01:02:49.724Z,6.80
2019-03-18T01:05:18.878Z,6.80
2019-03-18T01:07:47.737Z,6.80
2019-03-18T01:10:20.074Z,6.70
2019-03-18T01:12:48.892Z,6.70
2019-03-18T01:15:27.229Z,6.70
2019-03-18T01:17:48.171Z,6.70
2019-03-18T01:20:17.337Z,6.70
2019-03-18T01:22:46.159Z,6.70
2019-03-18T01:25:14.975Z,6.60
2019-03-18T01:27:43.754Z,6.60
2019-03-18T01:30:13.775Z,6.60
2019-03-18T01:32:42.563Z,6.60
2019-03-18T01:35:11.401Z,6.60
2019-03-18T01:37:40.270Z,6.60
2019-03-18T01:40:16.308Z,6.60
2019-03-18T01:42:45.188Z,6.60
2019-03-18T01:45:14.047Z,6.50
2019-03-18T01:47:42.926Z,6.50
2019-03-18T01:50:15.350Z,6.50
2019-03-18T01:52:44.290Z,6.50
2019-03-18T01:55:13.405Z,6.40
2019-03-18T01:57:42.177Z,6.40
2019-03-18T02:00:13.311Z,6.30
2019-03-18T02:02:42.052Z,6.30
2019-03-18T02:05:11.239Z,6.30
2019-03-18T02:07:40.088Z,6.30
2019-03-18T02:10:11.589Z,6.20
2019-03-18T02:12:40.377Z,6.20
2019-03-18T02:15:11.452Z,6.20
2019-03-18T02:17:40.259Z,6.20
2019-03-18T02:20:12.087Z,6.20
2019-03-18T02:22:40.872Z,6.10
2019-03-18T02:25:10.619Z,6.10
2019-03-18T02:27:39.486Z,6.10
2019-03-18T02:30:11.037Z,6.10
2019-03-18T02:32:39.907Z,6.10
2019-03-18T02:35:08.815Z,6.00
2019-03-18T02:37:37.593Z,6.00
2019-03-18T02:40:08.737Z,6.00
2019-03-18T02:42:37.621Z,6.00
2019-03-18T02:45:08.966Z,5.90
2019-03-18T02:47:37.729Z,5.90
2019-03-18T02:50:07.408Z,5.90
2019-03-18T02:52:36.282Z,5.80
2019-03-18T02:55:06.495Z,5.80
2019-03-18T02:57:35.324Z,5.80
2019-03-18T03:00:05.808Z,5.70
2019-03-18T03:02:34.593Z,5.70
2019-03-18T03:05:03.962Z,5.70
2019-03-18T03:07:32.891Z,5.70
2019-03-18T03:10:01.783Z,5.60
2019-03-18T03:12:30.674Z,5.60
2019-03-18T03:14:59.419Z,5.60
2019-03-18T03:17:28.307Z,5.60
2019-03-18T03:19:57.159Z,5.60
2019-03-18T03:22:25.925Z,5.60
2019-03-18T03:24:54.723Z,5.60
2019-03-18T03:27:23.513Z,5.50
2019-03-18T03:29:52.286Z,5.40
2019-03-18T03:32:21.088Z,5.40
2019-03-18T03:34:49.904Z,5.40
2019-03-18T03:37:18.724Z,5.40
2019-03-18T03:39:47.507Z,5.40
2019-03-18T03:42:16.420Z,5.40
2019-03-18T03:44:45.191Z,5.40
2019-03-18T03:47:13.982Z,5.40
2019-03-18T03:49:42.769Z,5.40
2019-03-18T03:52:11.616Z,5.40
2019-03-18T03:54:40.447Z,5.40
2019-03-18T03:57:09.756Z,5.30
2019-03-18T03:59:38.629Z,5.30
2019-03-18T04:02:07.476Z,5.30
2019-03-18T04:04:36.521Z,5.30
2019-03-18T04:07:05.539Z,5.30
2019-03-18T04:09:34.320Z,5.20
2019-03-18T04:12:03.249Z,5.20
2019-03-18T04:14:32.023Z,5.20
2019-03-18T04:17:02.151Z,5.10
2019-03-18T04:19:31.248Z,5.10
2019-03-18T04:22:00.032Z,5.10
2019-03-18T04:24:28.923Z,5.10
2019-03-18T04:26:57.700Z,5.10
2019-03-18T04:29:26.451Z,5.10
2019-03-18T04:31:55.274Z,5.10
2019-03-18T04:34:24.136Z,5.00
2019-03-18T04:36:52.919Z,5.00
2019-03-18T04:39:21.657Z,5.00
2019-03-18T04:41:50.601Z,5.00
2019-03-18T04:44:19.358Z,5.00
2019-03-18T04:46:48.167Z,5.00
2019-03-18T04:49:17.020Z,5.00
2019-03-18T04:51:45.761Z,5.00
2019-03-18T04:54:14.525Z,5.00
2019-03-18T04:56:43.319Z,5.00
2019-03-18T04:59:12.230Z,5.00
2019-03-18T05:01:40.990Z,5.00
2019-03-18T05:04:09.888Z,5.00
2019-03-18T05:06:38.783Z,5.00
2019-03-18T05:09:07.712Z,5.00
2019-03-18T05:11:36.538Z,5.00
2019-03-18T05:14:05.364Z,5.10
2019-03-18T05:16:34.260Z,5.00
2019-03-18T05:19:03.125Z,5.00
2019-03-18T05:21:31.920Z,5.00
2019-03-18T05:24:00.801Z,5.10
2019-03-18T05:26:29.619Z,5.10
2019-03-18T05:28:58.516Z,5.20
2019-03-18T05:31:27.346Z,5.20
2019-03-18T05:33:56.229Z,5.30
2019-03-18T05:36:25.014Z,5.30
2019-03-18T05:38:53.829Z,5.30
2019-03-18T05:41:22.670Z,5.40
2019-03-18T05:43:51.466Z,5.40
2019-03-18T05:46:20.286Z,5.50
2019-03-18T05:48:49.108Z,5.50
2019-03-18T05:51:17.912Z,5.50
2019-03-18T05:53:46.684Z,5.60
2019-03-18T05:56:15.581Z,5.60
2019-03-18T05:58:44.414Z,5.70
2019-03-18T06:01:13.252Z,5.70
2019-03-18T06:03:42.066Z,5.70
2019-03-18T06:06:10.847Z,5.70
2019-03-18T06:08:39.867Z,5.80
2019-03-18T06:11:08.680Z,5.90
2019-03-18T06:13:37.558Z,5.90
2019-03-18T06:16:06.332Z,5.90
2019-03-18T06:18:35.163Z,5.90
2019-03-18T06:21:04.182Z,5.90
2019-03-18T06:23:32.930Z,5.90
2019-03-18T06:26:01.803Z,5.80
2019-03-18T06:28:30.597Z,5.80
2019-03-18T06:30:59.381Z,5.80
2019-03-18T06:33:28.276Z,5.80
2019-03-18T06:35:57.062Z,5.80
2019-03-18T06:38:25.883Z,5.90
2019-03-18T06:40:54.771Z,6.00
2019-03-18T06:43:23.615Z,6.10
2019-03-18T06:45:52.420Z,6.20
2019-03-18T06:48:21.289Z,6.30
2019-03-18T06:50:50.087Z,6.40
2019-03-18T06:53:18.847Z,6.50
2019-03-18T06:55:47.741Z,6.60
2019-03-18T06:58:16.515Z,6.70
2019-03-18T07:00:45.270Z,6.70
2019-03-18T07:03:14.118Z,6.70
2019-03-18T07:05:42.935Z,6.80
2019-03-18T07:08:11.811Z,6.80
2019-03-18T07:10:40.889Z,6.90
2019-03-18T07:13:09.659Z,7.00
2019-03-18T07:15:38.459Z,7.00
2019-03-18T07:18:17.666Z,7.00
2019-03-18T07:20:37.773Z,7.00
2019-03-18T07:23:06.588Z,7.10
2019-03-18T07:25:35.493Z,7.30
2019-03-18T07:28:04.284Z,7.50
2019-03-18T07:30:33.037Z,7.90
2019-03-18T07:33:01.835Z,8.60
2019-03-18T07:35:30.668Z,8.90
2019-03-18T07:37:59.414Z,9.10
2019-03-18T07:40:28.328Z,9.00
2019-03-18T07:42:57.137Z,8.80
2019-03-18T07:45:25.978Z,8.70
2019-03-18T07:47:54.953Z,8.50
2019-03-18T07:50:23.767Z,8.40
2019-03-18T07:52:52.667Z,8.20
2019-03-18T07:55:21.530Z,8.00
2019-03-18T07:57:50.304Z,7.90
2019-03-18T08:00:19.058Z,7.90
2019-03-18T08:02:47.925Z,7.80
2019-03-18T08:05:16.671Z,7.80
2019-03-18T08:07:45.418Z,7.90
2019-03-18T08:10:14.517Z,8.00
2019-03-18T08:12:43.792Z,8.10
2019-03-18T08:15:13.171Z,8.40
2019-03-18T08:17:42.099Z,8.90
2019-03-18T08:20:12.180Z,9.30
2019-03-18T08:22:40.932Z,9.60
2019-03-18T08:25:10.348Z,9.70
2019-03-18T08:27:39.199Z,9.70
2019-03-18T08:30:18.788Z,9.70
2019-03-18T08:32:47.585Z,9.80
2019-03-18T08:35:16.393Z,9.90
2019-03-18T08:37:45.189Z,10.00
2019-03-18T08:40:14.042Z,10.20
2019-03-18T08:42:42.928Z,10.60
2019-03-18T08:45:15.504Z,11.30
2019-03-18T08:47:44.360Z,11.30
2019-03-18T08:50:13.250Z,11.40
2019-03-18T08:52:42.137Z,11.60
2019-03-18T08:55:11.586Z,11.50
2019-03-18T08:57:40.433Z,11.40
2019-03-18T09:00:16.708Z,11.40
2019-03-18T09:02:45.568Z,11.30
2019-03-18T09:05:14.301Z,11.10
2019-03-18T09:07:43.085Z,11.10
2019-03-18T09:10:15.740Z,11.20
2019-03-18T09:12:44.600Z,11.30
2019-03-18T09:15:13.867Z,11.30
2019-03-18T09:17:42.742Z,11.20
2019-03-18T09:20:13.864Z,10.90
2019-03-18T09:22:42.734Z,10.60
2019-03-18T09:25:12.381Z,10.40
2019-03-18T09:27:41.244Z,10.40
2019-03-18T09:30:21.102Z,10.50
2019-03-18T09:32:49.876Z,10.60
2019-03-18T09:35:18.698Z,10.70
2019-03-18T09:37:47.521Z,10.50
2019-03-18T09:40:16.807Z,10.40
2019-03-18T09:42:45.576Z,10.40
2019-03-18T09:45:16.462Z,10.40
2019-03-18T09:47:45.311Z,10.60
2019-03-18T09:50:14.382Z,11.00
2019-03-18T09:52:43.289Z,11.20
2019-03-18T09:55:12.659Z,11.40
2019-03-18T09:57:41.549Z,11.50
2019-03-18T10:00:15.238Z,11.40
2019-03-18T10:02:44.022Z,11.20
2019-03-18T10:05:12.793Z,11.10
2019-03-18T10:07:41.707Z,11.10
2019-03-18T10:10:12.686Z,11.10
2019-03-18T10:12:41.444Z,10.90
2019-03-18T10:15:18.153Z,10.70
2019-03-18T10:17:47.070Z,10.60
2019-03-18T10:20:15.836Z,10.80
2019-03-18T10:22:44.781Z,11.10
2019-03-18T10:25:13.573Z,11.10
2019-03-18T10:27:42.431Z,11.00
2019-03-18T10:30:13.507Z,10.80
2019-03-18T10:32:42.275Z,10.70
2019-03-18T10:35:11.155Z,10.70
2019-03-18T10:37:39.994Z,10.80
2019-03-18T10:40:12.727Z,11.00
2019-03-18T10:42:41.503Z,11.10
2019-03-18T10:45:13.850Z,11.20
2019-03-18T10:47:42.927Z,11.30
2019-03-18T10:50:16.108Z,11.20
2019-03-18T10:52:45.093Z,11.20
2019-03-18T10:55:14.017Z,11.10
2019-03-18T10:57:42.777Z,11.20
2019-03-18T11:00:14.524Z,11.30
2019-03-18T11:02:45.042Z,11.20
2019-03-18T11:05:14.678Z,11.10
2019-03-18T11:07:43.632Z,11.10
2019-03-18T11:10:18.485Z,11.10
2019-03-18T11:12:47.346Z,11.00
2019-03-18T11:15:20.255Z,11.10
2019-03-18T11:17:49.114Z,11.20
2019-03-18T11:20:18.300Z,11.20
2019-03-18T11:22:47.145Z,11.20
2019-03-18T11:25:16.826Z,11.30
2019-03-18T11:27:45.749Z,11.20
2019-03-18T11:30:18.716Z,11.00
2019-03-18T11:32:47.499Z,10.90
2019-03-18T11:35:16.316Z,10.70
2019-03-18T11:41:17.311Z,10.40
2019-03-18T11:43:44.980Z,10.40
2019-03-18T11:46:13.777Z,10.50
2019-03-18T11:48:42.727Z,10.50
2019-03-18T11:51:11.521Z,10.50
2019-03-18T11:53:40.326Z,10.50
2019-03-18T11:56:09.184Z,10.50
2019-03-18T11:58:38.044Z,10.50
2019-03-18T12:01:06.878Z,10.50
2019-03-18T12:03:35.820Z,10.40
2019-03-18T12:06:04.602Z,10.30
2019-03-18T12:08:33.467Z,10.20
2019-03-18T12:11:02.253Z,10.00
2019-03-18T12:13:31.140Z,10.00
2019-03-18T12:15:59.957Z,10.10
2019-03-18T12:18:28.877Z,10.30
2019-03-18T12:20:57.709Z,10.30
2019-03-18T12:23:26.517Z,10.40
2019-03-18T12:25:55.356Z,10.50
2019-03-18T12:28:24.202Z,10.60
2019-03-18T12:30:53.050Z,10.60
2019-03-18T12:33:21.892Z,10.40
2019-03-18T12:35:51.876Z,10.20
2019-03-18T12:38:20.645Z,9.90
2019-03-18T12:40:49.724Z,9.70
2019-03-18T12:43:18.607Z,9.70
2019-03-18T12:45:47.440Z,9.70
2019-03-18T12:48:16.240Z,9.70
2019-03-18T12:50:55.673Z,9.60
2019-03-18T12:53:15.508Z,9.60
2019-03-18T12:55:44.409Z,9.70
2019-03-18T12:58:13.204Z,9.70
2019-03-18T13:00:41.998Z,9.60
2019-03-18T13:03:10.855Z,9.50
2019-03-18T13:05:39.671Z,9.40
2019-03-18T13:08:09.474Z,9.40
2019-03-18T13:10:39.073Z,9.50
2019-03-18T13:13:07.922Z,9.70
2019-03-18T13:15:36.810Z,9.80
2019-03-18T13:18:05.731Z,9.90
2019-03-18T13:20:34.501Z,9.90
2019-03-18T13:23:03.443Z,9.80
2019-03-18T13:25:32.802Z,9.80
2019-03-18T13:28:01.606Z,9.70
2019-03-18T13:30:30.454Z,9.60
2019-03-18T13:32:59.331Z,9.50
2019-03-18T13:35:28.208Z,9.40
2019-03-18T13:37:57.024Z,9.30
2019-03-18T13:40:25.925Z,9.20
2019-03-18T13:42:54.708Z,9.10
2019-03-18T13:45:24.407Z,9.00
2019-03-18T13:47:53.282Z,8.90
2019-03-18T13:50:22.666Z,8.80
2019-03-18T13:52:51.572Z,8.80
2019-03-18T13:55:20.521Z,8.80
2019-03-18T13:57:49.375Z,8.90
2019-03-18T14:00:19.126Z,8.90
2019-03-18T14:02:49.609Z,8.90
2019-03-18T14:05:18.390Z,9.00
2019-03-18T14:07:59.818Z,9.00
2019-03-18T14:10:20.072Z,8.90
2019-03-18T14:12:48.873Z,8.90
2019-03-18T14:15:19.864Z,8.90
2019-03-18T14:17:48.737Z,8.90
2019-03-18T14:20:19.956Z,8.90
2019-03-18T14:22:48.744Z,8.70
2019-03-18T14:25:17.692Z,8.60
2019-03-18T14:27:46.476Z,8.60
2019-03-18T14:30:19.635Z,8.60
2019-03-18T14:32:48.497Z,8.60
2019-03-18T14:35:21.155Z,8.60
2019-03-18T14:37:47.842Z,8.50
2019-03-18T14:40:24.455Z,8.50
2019-03-18T14:42:53.241Z,8.40
2019-03-18T14:45:24.287Z,8.30
2019-03-18T14:47:53.409Z,8.30
2019-03-18T14:50:22.278Z,8.30
2019-03-18T14:52:51.033Z,8.20
2019-03-18T14:55:20.079Z,8.20
2019-03-18T14:57:48.935Z,8.10
2019-03-18T15:00:26.519Z,8.00
2019-03-18T15:02:57.284Z,8.00
2019-03-18T15:05:26.055Z,8.00
2019-03-18T15:07:54.904Z,8.00
2019-03-18T15:10:33.745Z,7.90
2019-03-18T15:13:02.589Z,7.90
2019-03-18T15:15:31.428Z,7.90
2019-03-18T15:18:00.224Z,7.90
2019-03-18T15:20:29.463Z,7.90
2019-03-18T15:22:58.201Z,7.90
2019-03-18T15:25:29.233Z,7.90
2019-03-18T15:27:58.274Z,7.90
2019-03-18T15:30:27.132Z,7.90
2019-03-18T15:32:55.993Z,7.90
2019-03-18T15:35:24.807Z,7.90
2019-03-18T15:37:53.771Z,7.90
2019-03-18T15:40:27.088Z,7.90
2019-03-18T15:42:55.978Z,7.90
2019-03-18T15:45:24.768Z,7.80
2019-03-18T15:47:53.524Z,7.80
2019-03-18T15:50:24.270Z,7.80
2019-03-18T15:52:53.115Z,7.80
2019-03-18T15:55:23.991Z,7.80
2019-03-18T15:57:52.487Z,7.80
2019-03-18T16:00:31.436Z,7.80
2019-03-18T16:03:00.785Z,7.80
2019-03-18T16:05:29.576Z,7.70
2019-03-18T16:07:58.361Z,7.70
2019-03-18T16:10:27.210Z,7.70
2019-03-18T16:12:56.097Z,7.70
2019-03-18T16:15:24.990Z,7.70
2019-03-18T16:17:53.804Z,7.60
2019-03-18T16:20:28.898Z,7.60
2019-03-18T16:22:57.703Z,7.50
2019-03-18T16:29:08.770Z,7.40
2019-03-18T16:35:18.779Z,7.30
2019-03-18T16:37:47.565Z,7.30
2019-03-18T16:40:21.092Z,7.10
2019-03-18T16:42:49.953Z,7.00
2019-03-18T16:45:20.509Z,6.80
2019-03-18T16:47:49.332Z,6.70
2019-03-18T16:50:19.886Z,6.60
2019-03-18T16:52:48.616Z,6.50
2019-03-18T16:55:18.978Z,6.50
2019-03-18T16:57:47.884Z,6.40
2019-03-18T17:00:21.412Z,6.40
2019-03-18T17:02:50.169Z,6.40
2019-03-18T17:05:19.080Z,6.40
2019-03-18T17:07:47.818Z,6.40
2019-03-18T17:10:17.067Z,6.30
2019-03-18T17:12:45.831Z,6.40
2019-03-18T17:15:16.075Z,6.30
2019-03-18T17:18:04.240Z,6.20
2019-03-18T17:20:33.103Z,6.20
2019-03-18T17:23:01.921Z,6.20
2019-03-18T17:25:32.011Z,6.20
2019-03-18T17:28:00.813Z,6.20
2019-03-18T17:30:29.749Z,6.10
2019-03-18T17:32:58.612Z,6.00
2019-03-18T17:35:29.051Z,6.00
2019-03-18T17:37:57.981Z,6.00
2019-03-18T17:40:26.733Z,6.10
2019-03-18T17:42:55.775Z,6.10
2019-03-18T17:45:24.638Z,6.10
2019-03-18T17:47:54.380Z,6.20
2019-03-18T17:50:25.663Z,6.20
2019-03-18T17:53:02.256Z,6.20
2019-03-18T17:55:24.963Z,6.20
2019-03-18T17:57:53.875Z,6.10
2019-03-18T18:00:32.411Z,6.10
2019-03-18T18:03:00.834Z,6.00
2019-03-18T18:05:29.632Z,5.90
2019-03-18T18:07:58.495Z,5.80
2019-03-18T18:10:27.355Z,5.70
2019-03-18T18:12:56.235Z,5.60
2019-03-18T18:15:25.147Z,5.60
2019-03-18T18:17:54.068Z,5.60
2019-03-18T18:20:22.840Z,5.60
2019-03-18T18:22:51.592Z,5.50
2019-03-18T18:25:20.546Z,5.50
2019-03-18T18:27:49.324Z,5.50
2019-03-18T18:30:19.014Z,5.40
2019-03-18T18:32:48.194Z,5.40
2019-03-18T18:35:16.993Z,5.40
2019-03-18T18:37:45.811Z,5.40
2019-03-18T18:40:16.300Z,5.40
2019-03-18T18:42:45.083Z,5.40
2019-03-18T18:45:14.136Z,5.50
2019-03-18T18:47:42.997Z,5.50
2019-03-18T18:50:12.776Z,5.60
2019-03-18T18:52:41.646Z,5.60
2019-03-18T18:55:12.009Z,5.70
2019-03-18T18:57:40.763Z,5.70
2019-03-18T19:00:17.943Z,5.70
2019-03-18T19:02:46.742Z,5.80
2019-03-18T19:05:16.241Z,5.80
2019-03-18T19:07:45.058Z,5.80
2019-03-18T19:10:18.897Z,5.80
2019-03-18T19:12:47.782Z,5.80
2019-03-18T19:15:21.540Z,5.90
2019-03-18T19:17:50.274Z,5.90
2019-03-18T19:20:19.077Z,5.90
2019-03-18T19:22:47.859Z,5.90
2019-03-18T19:25:17.302Z,5.90
2019-03-18T19:27:46.227Z,5.80
2019-03-18T19:30:20.180Z,5.80
2019-03-18T19:32:48.932Z,5.90
2019-03-18T19:38:52.811Z,5.90
2019-03-18T19:41:23.107Z,5.90
2019-03-18T19:43:51.974Z,5.90
2019-03-18T19:46:20.870Z,5.80
2019-03-18T19:48:49.663Z,5.80
2019-03-18T19:51:19.629Z,5.80
2019-03-18T19:53:49.566Z,5.90
2019-03-18T19:56:18.600Z,5.90
2019-03-18T19:58:47.439Z,6.00
2019-03-18T20:01:16.261Z,6.00
2019-03-18T20:03:45.102Z,6.00
2019-03-18T20:06:14.548Z,6.00
2019-03-18T20:08:43.390Z,6.10
2019-03-18T20:11:12.238Z,6.10
2019-03-18T20:13:42.550Z,6.10
2019-03-18T20:16:11.337Z,6.10
2019-03-18T20:18:40.147Z,6.10
2019-03-18T20:21:09.283Z,6.10
2019-03-18T20:23:38.160Z,6.10
2019-03-18T20:26:06.964Z,6.10
2019-03-18T20:28:35.772Z,6.10
2019-03-18T20:31:05.977Z,6.10
2019-03-18T20:33:34.738Z,6.10
2019-03-18T20:36:03.545Z,6.10
2019-03-18T20:38:32.452Z,6.10
2019-03-18T20:41:01.346Z,6.10
2019-03-18T20:43:30.339Z,6.00
2019-03-18T20:45:59.184Z,6.00
2019-03-18T20:48:27.990Z,6.00
2019-03-18T20:50:56.873Z,6.00
2019-03-18T20:53:25.721Z,6.00
2019-03-18T20:55:54.588Z,6.00
2019-03-18T20:58:23.394Z,6.00
2019-03-18T21:00:53.120Z,6.00
2019-03-18T21:03:22.053Z,6.00
2019-03-18T21:05:55.558Z,6.00
2019-03-18T21:08:24.518Z,6.10
2019-03-18T21:10:53.361Z,6.10
2019-03-18T21:13:22.272Z,6.10
2019-03-18T21:15:51.134Z,6.10
2019-03-18T21:18:20.034Z,6.10
2019-03-18T21:20:48.936Z,6.20
2019-03-18T21:23:17.791Z,6.20
2019-03-18T21:25:48.086Z,6.20
2019-03-18T21:28:17.007Z,6.20
2019-03-18T21:30:45.834Z,6.20
2019-03-18T21:33:14.721Z,6.20
2019-03-18T21:35:43.616Z,6.30
2019-03-18T21:38:12.510Z,6.30
2019-03-18T21:40:41.367Z,6.40
2019-03-18T21:43:10.297Z,6.40
2019-03-18T21:45:39.281Z,6.50
2019-03-18T21:48:08.042Z,6.50
2019-03-18T21:50:36.865Z,6.50
2019-03-18T21:53:07.447Z,6.50
2019-03-18T21:55:36.257Z,6.50
2019-03-18T21:58:08.061Z,6.50
2019-03-18T22:00:36.980Z,6.50
2019-03-18T22:03:05.858Z,6.60
2019-03-18T22:05:34.799Z,6.60
2019-03-18T22:08:03.613Z,6.50
2019-03-18T22:10:32.421Z,6.50
2019-03-18T22:13:01.224Z,6.50
2019-03-18T22:15:34.827Z,6.50
2019-03-18T22:18:03.710Z,6.40
2019-03-18T22:20:32.507Z,6.40
2019-03-18T22:23:01.264Z,6.40
2019-03-18T22:25:34.651Z,6.30
2019-03-18T22:28:03.017Z,6.30
2019-03-18T22:30:31.888Z,6.20
2019-03-18T22:33:00.698Z,6.20
2019-03-18T22:35:29.490Z,6.20
2019-03-18T22:37:58.395Z,6.10
2019-03-18T22:40:27.662Z,6.20
2019-03-18T22:42:56.567Z,6.20
2019-03-18T22:45:25.422Z,6.20
2019-03-18T22:47:54.434Z,6.30
2019-03-18T22:50:23.260Z,6.20
2019-03-18T22:52:52.165Z,6.20
2019-03-18T22:55:20.926Z,6.20
2019-03-18T22:57:49.811Z,6.20
2019-03-18T23:00:38.855Z,6.20
2019-03-18T23:03:07.672Z,6.20
2019-03-18T23:05:36.618Z,6.20
2019-03-18T23:08:05.642Z,6.20
2019-03-18T23:10:34.490Z,6.30
2019-03-18T23:13:03.333Z,6.30
2019-03-18T23:15:32.103Z,6.20
2019-03-18T23:18:01.024Z,6.30
2019-03-18T23:20:29.871Z,6.20
2019-03-18T23:22:58.692Z,6.30
2019-03-18T23:25:27.480Z,6.20
2019-03-18T23:27:56.329Z,6.20
2019-03-18T23:30:25.113Z,6.30
2019-03-18T23:32:53.975Z,6.20
2019-03-18T23:35:22.804Z,6.20
2019-03-18T23:37:51.606Z,6.20
2019-03-18T23:40:20.396Z,6.20
2019-03-18T23:42:49.239Z,6.20
2019-03-18T23:45:19.957Z,6.10
2019-03-18T23:47:48.648Z,6.00
2019-03-18T23:50:17.425Z,6.00
2019-03-18T23:52:48.917Z,6.00
2019-03-18T23:55:19.864Z,6.00
2019-03-18T23:57:48.333Z,6.00
